sensor_id;sensor_type;location;lat;lon;timestamp;P1;durP1;ratioP1;P2;durP2;ratioP2
58242;SDS011;50118;53.232;8.252;2023-07-08T00:00:23;9.63;;;5.20;;
58242;SDS011;50118;53.232;8.252;2023-07-08T00:02:49;7.18;;;5.10;;
58242;SDS011;50118;53.232;8.252;2023-07-08T00:05:16;6.80;;;4.93;;
58242;SDS011;50118;53.232;8.252;2023-07-08T00:07:43;6.88;;;5.07;;
58242;SDS011;50118;53.232;8.252;2023-07-08T00:10:16;7.53;;;5.35;;
58242;SDS011;50118;53.232;8.252;2023-07-08T00:12:46;6.93;;;5.43;;
58242;SDS011;50118;53.232;8.252;2023-07-08T00:15:14;6.43;;;4.80;;
58242;SDS011;50118;53.232;8.252;2023-07-08T00:17:41;8.13;;;5.10;;
58242;SDS011;50118;53.232;8.252;2023-07-08T00:20:14;9.13;;;5.63;;
58242;SDS011;50118;53.232;8.252;2023-07-08T00:22:45;6.90;;;5.35;;
58242;SDS011;50118;53.232;8.252;2023-07-08T00:25:12;8.82;;;5.38;;
58242;SDS011;50118;53.232;8.252;2023-07-08T00:27:41;7.28;;;4.80;;
58242;SDS011;50118;53.232;8.252;2023-07-08T00:32:45;9.27;;;5.43;;
58242;SDS011;50118;53.232;8.252;2023-07-08T00:35:10;7.40;;;5.15;;
58242;SDS011;50118;53.232;8.252;2023-07-08T00:37:36;8.30;;;5.55;;
58242;SDS011;50118;53.232;8.252;2023-07-08T00:40:08;8.02;;;5.60;;
58242;SDS011;50118;53.232;8.252;2023-07-08T00:42:43;8.85;;;5.40;;
58242;SDS011;50118;53.232;8.252;2023-07-08T00:45:24;9.70;;;5.32;;
58242;SDS011;50118;53.232;8.252;2023-07-08T00:48:29;8.40;;;5.53;;
58242;SDS011;50118;53.232;8.252;2023-07-08T00:50:57;8.85;;;5.95;;
58242;SDS011;50118;53.232;8.252;2023-07-08T00:56:00;8.70;;;5.95;;
58242;SDS011;50118;53.232;8.252;2023-07-08T00:58:36;8.77;;;5.63;;
58242;SDS011;50118;53.232;8.252;2023-07-08T01:01:07;8.48;;;5.22;;
58242;SDS011;50118;53.232;8.252;2023-07-08T01:03:36;7.57;;;5.80;;
58242;SDS011;50118;53.232;8.252;2023-07-08T01:06:10;7.68;;;5.72;;
58242;SDS011;50118;53.232;8.252;2023-07-08T01:08:36;8.25;;;5.57;;
58242;SDS011;50118;53.232;8.252;2023-07-08T01:11:04;8.95;;;6.13;;
58242;SDS011;50118;53.232;8.252;2023-07-08T01:13:31;8.93;;;5.75;;
58242;SDS011;50118;53.232;8.252;2023-07-08T01:16:00;7.78;;;6.00;;
58242;SDS011;50118;53.232;8.252;2023-07-08T01:18:26;8.80;;;5.80;;
58242;SDS011;50118;53.232;8.252;2023-07-08T01:20:53;6.95;;;6.10;;
58242;SDS011;50118;53.232;8.252;2023-07-08T01:23:20;8.82;;;6.32;;
58242;SDS011;50118;53.232;8.252;2023-07-08T01:25:46;7.40;;;6.10;;
58242;SDS011;50118;53.232;8.252;2023-07-08T01:28:12;8.45;;;6.10;;
58242;SDS011;50118;53.232;8.252;2023-07-08T01:30:40;7.68;;;5.78;;
58242;SDS011;50118;53.232;8.252;2023-07-08T01:33:11;9.25;;;6.60;;
58242;SDS011;50118;53.232;8.252;2023-07-08T01:35:43;8.07;;;6.20;;
58242;SDS011;50118;53.232;8.252;2023-07-08T01:38:10;8.27;;;5.57;;
58242;SDS011;50118;53.232;8.252;2023-07-08T01:40:37;8.70;;;6.78;;
58242;SDS011;50118;53.232;8.252;2023-07-08T01:43:04;9.93;;;6.90;;
58242;SDS011;50118;53.232;8.252;2023-07-08T01:45:31;8.02;;;6.13;;
58242;SDS011;50118;53.232;8.252;2023-07-08T01:48:12;7.53;;;6.30;;
58242;SDS011;50118;53.232;8.252;2023-07-08T01:50:42;8.82;;;6.80;;
58242;SDS011;50118;53.232;8.252;2023-07-08T01:53:15;7.88;;;6.55;;
58242;SDS011;50118;53.232;8.252;2023-07-08T01:55:41;9.65;;;6.47;;
58242;SDS011;50118;53.232;8.252;2023-07-08T01:58:07;9.98;;;6.70;;
58242;SDS011;50118;53.232;8.252;2023-07-08T02:00:32;9.43;;;7.40;;
58242;SDS011;50118;53.232;8.252;2023-07-08T02:02:58;9.32;;;6.82;;
58242;SDS011;50118;53.232;8.252;2023-07-08T02:05:23;8.25;;;6.85;;
58242;SDS011;50118;53.232;8.252;2023-07-08T02:07:49;9.73;;;7.00;;
58242;SDS011;50118;53.232;8.252;2023-07-08T02:10:14;8.25;;;7.20;;
58242;SDS011;50118;53.232;8.252;2023-07-08T02:12:40;7.75;;;6.38;;
58242;SDS011;50118;53.232;8.252;2023-07-08T02:15:05;10.73;;;7.57;;
58242;SDS011;50118;53.232;8.252;2023-07-08T02:17:31;10.18;;;8.00;;
58242;SDS011;50118;53.232;8.252;2023-07-08T02:19:57;10.43;;;8.05;;
58242;SDS011;50118;53.232;8.252;2023-07-08T02:22:22;9.98;;;7.45;;
58242;SDS011;50118;53.232;8.252;2023-07-08T02:24:48;8.73;;;7.50;;
58242;SDS011;50118;53.232;8.252;2023-07-08T02:27:14;9.40;;;7.88;;
58242;SDS011;50118;53.232;8.252;2023-07-08T02:29:40;9.68;;;7.97;;
58242;SDS011;50118;53.232;8.252;2023-07-08T02:32:05;10.82;;;7.90;;
58242;SDS011;50118;53.232;8.252;2023-07-08T02:34:31;11.07;;;7.65;;
58242;SDS011;50118;53.232;8.252;2023-07-08T02:36:57;11.23;;;8.73;;
58242;SDS011;50118;53.232;8.252;2023-07-08T02:39:23;10.82;;;8.77;;
58242;SDS011;50118;53.232;8.252;2023-07-08T02:41:48;10.27;;;7.80;;
58242;SDS011;50118;53.232;8.252;2023-07-08T02:44:14;11.43;;;8.15;;
58242;SDS011;50118;53.232;8.252;2023-07-08T02:46:40;10.32;;;7.72;;
58242;SDS011;50118;53.232;8.252;2023-07-08T02:49:05;9.82;;;8.05;;
58242;SDS011;50118;53.232;8.252;2023-07-08T02:51:31;9.65;;;7.88;;
58242;SDS011;50118;53.232;8.252;2023-07-08T02:53:56;9.27;;;7.93;;
58242;SDS011;50118;53.232;8.252;2023-07-08T02:56:22;10.77;;;7.90;;
58242;SDS011;50118;53.232;8.252;2023-07-08T02:58:48;10.65;;;7.90;;
58242;SDS011;50118;53.232;8.252;2023-07-08T03:01:14;10.95;;;7.70;;
58242;SDS011;50118;53.232;8.252;2023-07-08T03:03:46;10.80;;;8.27;;
58242;SDS011;50118;53.232;8.252;2023-07-08T03:06:12;9.63;;;7.90;;
58242;SDS011;50118;53.232;8.252;2023-07-08T03:08:38;10.07;;;8.43;;
58242;SDS011;50118;53.232;8.252;2023-07-08T03:11:04;8.70;;;7.72;;
58242;SDS011;50118;53.232;8.252;2023-07-08T03:13:31;9.07;;;7.90;;
58242;SDS011;50118;53.232;8.252;2023-07-08T03:15:59;9.05;;;7.50;;
58242;SDS011;50118;53.232;8.252;2023-07-08T03:18:25;10.95;;;8.23;;
58242;SDS011;50118;53.232;8.252;2023-07-08T03:20:52;10.23;;;7.60;;
58242;SDS011;50118;53.232;8.252;2023-07-08T03:23:18;10.93;;;8.15;;
58242;SDS011;50118;53.232;8.252;2023-07-08T03:25:44;13.18;;;8.07;;
58242;SDS011;50118;53.232;8.252;2023-07-08T03:28:09;10.45;;;8.18;;
58242;SDS011;50118;53.232;8.252;2023-07-08T03:30:43;10.95;;;8.88;;
58242;SDS011;50118;53.232;8.252;2023-07-08T03:33:09;9.20;;;7.80;;
58242;SDS011;50118;53.232;8.252;2023-07-08T03:35:36;8.77;;;7.82;;
58242;SDS011;50118;53.232;8.252;2023-07-08T03:38:01;11.00;;;7.90;;
58242;SDS011;50118;53.232;8.252;2023-07-08T03:40:27;10.43;;;7.97;;
58242;SDS011;50118;53.232;8.252;2023-07-08T03:42:53;8.70;;;7.65;;
58242;SDS011;50118;53.232;8.252;2023-07-08T03:45:18;10.43;;;7.88;;
58242;SDS011;50118;53.232;8.252;2023-07-08T03:47:44;9.15;;;8.10;;
58242;SDS011;50118;53.232;8.252;2023-07-08T03:50:17;9.48;;;8.23;;
58242;SDS011;50118;53.232;8.252;2023-07-08T03:52:44;10.30;;;7.88;;
58242;SDS011;50118;53.232;8.252;2023-07-08T03:55:11;8.68;;;7.72;;
58242;SDS011;50118;53.232;8.252;2023-07-08T03:57:37;9.73;;;7.72;;
58242;SDS011;50118;53.232;8.252;2023-07-08T04:00:02;10.25;;;8.20;;
58242;SDS011;50118;53.232;8.252;2023-07-08T04:02:28;11.05;;;8.18;;
58242;SDS011;50118;53.232;8.252;2023-07-08T04:04:54;7.78;;;6.95;;
58242;SDS011;50118;53.232;8.252;2023-07-08T04:07:19;10.02;;;8.00;;
58242;SDS011;50118;53.232;8.252;2023-07-08T04:09:45;10.98;;;7.53;;
58242;SDS011;50118;53.232;8.252;2023-07-08T04:12:15;8.43;;;7.55;;
58242;SDS011;50118;53.232;8.252;2023-07-08T04:14:40;9.65;;;7.53;;
58242;SDS011;50118;53.232;8.252;2023-07-08T04:17:08;9.88;;;8.05;;
58242;SDS011;50118;53.232;8.252;2023-07-08T04:19:34;10.23;;;7.32;;
58242;SDS011;50118;53.232;8.252;2023-07-08T04:22:01;10.10;;;7.60;;
58242;SDS011;50118;53.232;8.252;2023-07-08T04:24:27;7.70;;;6.88;;
58242;SDS011;50118;53.232;8.252;2023-07-08T04:26:53;7.93;;;6.40;;
58242;SDS011;50118;53.232;8.252;2023-07-08T04:29:20;7.00;;;6.07;;
58242;SDS011;50118;53.232;8.252;2023-07-08T04:31:47;7.65;;;6.00;;
58242;SDS011;50118;53.232;8.252;2023-07-08T04:34:14;7.70;;;5.78;;
58242;SDS011;50118;53.232;8.252;2023-07-08T04:36:40;7.75;;;5.65;;
58242;SDS011;50118;53.232;8.252;2023-07-08T04:39:06;8.95;;;5.38;;
58242;SDS011;50118;53.232;8.252;2023-07-08T04:41:33;6.80;;;5.40;;
58242;SDS011;50118;53.232;8.252;2023-07-08T04:43:59;7.10;;;5.38;;
58242;SDS011;50118;53.232;8.252;2023-07-08T04:46:30;6.90;;;5.20;;
58242;SDS011;50118;53.232;8.252;2023-07-08T04:49:02;7.97;;;5.38;;
58242;SDS011;50118;53.232;8.252;2023-07-08T04:51:28;6.82;;;5.10;;
58242;SDS011;50118;53.232;8.252;2023-07-08T04:53:54;6.38;;;5.00;;
58242;SDS011;50118;53.232;8.252;2023-07-08T04:56:19;7.85;;;5.35;;
58242;SDS011;50118;53.232;8.252;2023-07-08T04:58:45;7.10;;;5.13;;
58242;SDS011;50118;53.232;8.252;2023-07-08T05:01:10;6.28;;;4.90;;
58242;SDS011;50118;53.232;8.252;2023-07-08T05:03:36;5.38;;;4.70;;
58242;SDS011;50118;53.232;8.252;2023-07-08T05:06:01;5.93;;;4.95;;
58242;SDS011;50118;53.232;8.252;2023-07-08T05:08:27;6.25;;;5.15;;
58242;SDS011;50118;53.232;8.252;2023-07-08T05:10:52;6.25;;;4.95;;
58242;SDS011;50118;53.232;8.252;2023-07-08T05:13:18;6.68;;;4.80;;
58242;SDS011;50118;53.232;8.252;2023-07-08T05:15:43;6.40;;;4.45;;
58242;SDS011;50118;53.232;8.252;2023-07-08T05:18:08;6.28;;;4.70;;
58242;SDS011;50118;53.232;8.252;2023-07-08T05:20:34;5.22;;;4.30;;
58242;SDS011;50118;53.232;8.252;2023-07-08T05:23:01;6.38;;;3.80;;
58242;SDS011;50118;53.232;8.252;2023-07-08T05:25:27;5.93;;;4.05;;
58242;SDS011;50118;53.232;8.252;2023-07-08T05:27:56;5.57;;;4.07;;
58242;SDS011;50118;53.232;8.252;2023-07-08T05:30:21;5.80;;;4.10;;
58242;SDS011;50118;53.232;8.252;2023-07-08T05:32:47;6.28;;;3.80;;
58242;SDS011;50118;53.232;8.252;2023-07-08T05:35:13;5.25;;;3.75;;
58242;SDS011;50118;53.232;8.252;2023-07-08T05:37:38;6.70;;;3.90;;
58242;SDS011;50118;53.232;8.252;2023-07-08T05:40:05;6.00;;;3.88;;
58242;SDS011;50118;53.232;8.252;2023-07-08T05:42:32;6.20;;;3.55;;
58242;SDS011;50118;53.232;8.252;2023-07-08T05:44:57;4.95;;;3.78;;
58242;SDS011;50118;53.232;8.252;2023-07-08T05:47:23;5.53;;;3.85;;
58242;SDS011;50118;53.232;8.252;2023-07-08T05:49:48;5.15;;;3.80;;
58242;SDS011;50118;53.232;8.252;2023-07-08T05:52:14;7.63;;;3.83;;
58242;SDS011;50118;53.232;8.252;2023-07-08T05:54:40;5.07;;;3.70;;
58242;SDS011;50118;53.232;8.252;2023-07-08T05:57:07;5.22;;;3.55;;
58242;SDS011;50118;53.232;8.252;2023-07-08T05:59:34;5.00;;;3.67;;
58242;SDS011;50118;53.232;8.252;2023-07-08T06:02:01;6.78;;;3.72;;
58242;SDS011;50118;53.232;8.252;2023-07-08T06:04:28;5.63;;;3.60;;
58242;SDS011;50118;53.232;8.252;2023-07-08T06:06:53;5.50;;;3.70;;
58242;SDS011;50118;53.232;8.252;2023-07-08T06:09:18;4.15;;;3.05;;
58242;SDS011;50118;53.232;8.252;2023-07-08T06:11:44;4.63;;;3.38;;
58242;SDS011;50118;53.232;8.252;2023-07-08T06:14:09;5.78;;;3.28;;
58242;SDS011;50118;53.232;8.252;2023-07-08T06:16:35;7.35;;;3.58;;
58242;SDS011;50118;53.232;8.252;2023-07-08T06:19:00;5.75;;;3.20;;
58242;SDS011;50118;53.232;8.252;2023-07-08T06:21:26;5.20;;;3.30;;
58242;SDS011;50118;53.232;8.252;2023-07-08T06:23:51;5.70;;;3.30;;
58242;SDS011;50118;53.232;8.252;2023-07-08T06:26:16;5.22;;;3.40;;
58242;SDS011;50118;53.232;8.252;2023-07-08T06:28:42;4.95;;;3.50;;
58242;SDS011;50118;53.232;8.252;2023-07-08T06:31:07;4.90;;;3.33;;
58242;SDS011;50118;53.232;8.252;2023-07-08T06:33:33;4.50;;;3.22;;
58242;SDS011;50118;53.232;8.252;2023-07-08T06:35:58;5.70;;;3.45;;
58242;SDS011;50118;53.232;8.252;2023-07-08T06:38:24;4.63;;;3.20;;
58242;SDS011;50118;53.232;8.252;2023-07-08T06:40:49;5.28;;;3.17;;
58242;SDS011;50118;53.232;8.252;2023-07-08T06:43:14;5.90;;;2.90;;
58242;SDS011;50118;53.232;8.252;2023-07-08T06:45:40;4.35;;;3.00;;
58242;SDS011;50118;53.232;8.252;2023-07-08T06:48:06;5.35;;;3.30;;
58242;SDS011;50118;53.232;8.252;2023-07-08T06:50:31;4.82;;;3.22;;
58242;SDS011;50118;53.232;8.252;2023-07-08T06:52:57;3.83;;;2.88;;
58242;SDS011;50118;53.232;8.252;2023-07-08T06:55:23;4.20;;;3.00;;
58242;SDS011;50118;53.232;8.252;2023-07-08T06:57:48;6.38;;;3.85;;
58242;SDS011;50118;53.232;8.252;2023-07-08T07:00:14;5.15;;;3.30;;
58242;SDS011;50118;53.232;8.252;2023-07-08T07:02:39;5.47;;;3.20;;
58242;SDS011;50118;53.232;8.252;2023-07-08T07:05:05;5.35;;;3.25;;
58242;SDS011;50118;53.232;8.252;2023-07-08T07:07:30;5.32;;;3.50;;
58242;SDS011;50118;53.232;8.252;2023-07-08T07:09:56;4.72;;;3.20;;
58242;SDS011;50118;53.232;8.252;2023-07-08T07:12:23;4.85;;;3.30;;
58242;SDS011;50118;53.232;8.252;2023-07-08T07:14:49;4.93;;;3.25;;
58242;SDS011;50118;53.232;8.252;2023-07-08T07:17:17;5.10;;;3.22;;
58242;SDS011;50118;53.232;8.252;2023-07-08T07:19:44;5.35;;;3.35;;
58242;SDS011;50118;53.232;8.252;2023-07-08T07:22:09;5.32;;;3.08;;
58242;SDS011;50118;53.232;8.252;2023-07-08T07:24:35;5.18;;;2.75;;
58242;SDS011;50118;53.232;8.252;2023-07-08T07:27:00;5.10;;;3.42;;
58242;SDS011;50118;53.232;8.252;2023-07-08T07:29:26;4.28;;;3.20;;
58242;SDS011;50118;53.232;8.252;2023-07-08T07:31:51;5.38;;;3.15;;
58242;SDS011;50118;53.232;8.252;2023-07-08T07:34:17;4.38;;;3.40;;
58242;SDS011;50118;53.232;8.252;2023-07-08T07:36:42;6.03;;;3.10;;
58242;SDS011;50118;53.232;8.252;2023-07-08T07:39:08;4.85;;;3.20;;
58242;SDS011;50118;53.232;8.252;2023-07-08T07:41:33;4.18;;;3.00;;
58242;SDS011;50118;53.232;8.252;2023-07-08T07:43:58;5.00;;;3.25;;
58242;SDS011;50118;53.232;8.252;2023-07-08T07:46:24;5.55;;;3.28;;
58242;SDS011;50118;53.232;8.252;2023-07-08T07:48:49;5.65;;;3.47;;
58242;SDS011;50118;53.232;8.252;2023-07-08T07:51:15;6.30;;;3.55;;
58242;SDS011;50118;53.232;8.252;2023-07-08T07:53:40;4.95;;;3.20;;
58242;SDS011;50118;53.232;8.252;2023-07-08T07:56:07;4.75;;;3.47;;
58242;SDS011;50118;53.232;8.252;2023-07-08T07:58:33;4.47;;;3.25;;
58242;SDS011;50118;53.232;8.252;2023-07-08T08:00:58;4.50;;;3.30;;
58242;SDS011;50118;53.232;8.252;2023-07-08T08:03:24;5.88;;;3.80;;
58242;SDS011;50118;53.232;8.252;2023-07-08T08:05:50;5.10;;;3.45;;
58242;SDS011;50118;53.232;8.252;2023-07-08T08:08:15;5.40;;;3.45;;
58242;SDS011;50118;53.232;8.252;2023-07-08T08:10:44;5.20;;;3.20;;
58242;SDS011;50118;53.232;8.252;2023-07-08T08:13:10;7.50;;;3.50;;
58242;SDS011;50118;53.232;8.252;2023-07-08T08:15:36;5.85;;;3.13;;
58242;SDS011;50118;53.232;8.252;2023-07-08T08:18:02;6.55;;;3.10;;
58242;SDS011;50118;53.232;8.252;2023-07-08T08:20:28;5.80;;;3.17;;
58242;SDS011;50118;53.232;8.252;2023-07-08T08:22:54;5.45;;;3.33;;
58242;SDS011;50118;53.232;8.252;2023-07-08T08:25:20;4.05;;;3.00;;
58242;SDS011;50118;53.232;8.252;2023-07-08T08:27:47;4.03;;;3.15;;
58242;SDS011;50118;53.232;8.252;2023-07-08T08:30:12;4.28;;;3.33;;
58242;SDS011;50118;53.232;8.252;2023-07-08T08:32:38;4.55;;;3.03;;
58242;SDS011;50118;53.232;8.252;2023-07-08T08:35:04;4.22;;;3.22;;
58242;SDS011;50118;53.232;8.252;2023-07-08T08:37:29;5.70;;;3.13;;
58242;SDS011;50118;53.232;8.252;2023-07-08T08:39:55;3.90;;;3.03;;
58242;SDS011;50118;53.232;8.252;2023-07-08T08:42:26;5.30;;;3.22;;
58242;SDS011;50118;53.232;8.252;2023-07-08T08:45:04;5.72;;;2.85;;
58242;SDS011;50118;53.232;8.252;2023-07-08T08:47:39;4.82;;;2.97;;
58242;SDS011;50118;53.232;8.252;2023-07-08T08:52:38;5.10;;;3.05;;
58242;SDS011;50118;53.232;8.252;2023-07-08T08:55:12;4.35;;;3.00;;
58242;SDS011;50118;53.232;8.252;2023-07-08T08:57:41;4.70;;;3.05;;
58242;SDS011;50118;53.232;8.252;2023-07-08T09:00:32;5.25;;;3.17;;
58242;SDS011;50118;53.232;8.252;2023-07-08T09:03:21;5.68;;;3.00;;
58242;SDS011;50118;53.232;8.252;2023-07-08T09:05:49;3.67;;;2.90;;
58242;SDS011;50118;53.232;8.252;2023-07-08T09:10:57;5.18;;;3.05;;
58242;SDS011;50118;53.232;8.252;2023-07-08T09:13:36;4.82;;;3.05;;
58242;SDS011;50118;53.232;8.252;2023-07-08T09:19:09;3.65;;;2.85;;
58242;SDS011;50118;53.232;8.252;2023-07-08T09:21:45;5.05;;;2.88;;
58242;SDS011;50118;53.232;8.252;2023-07-08T09:24:59;4.72;;;3.00;;
58242;SDS011;50118;53.232;8.252;2023-07-08T09:27:09;5.80;;;3.28;;
58242;SDS011;50118;53.232;8.252;2023-07-08T09:29:35;3.95;;;2.90;;
58242;SDS011;50118;53.232;8.252;2023-07-08T09:32:15;10.02;;;3.40;;
58242;SDS011;50118;53.232;8.252;2023-07-08T09:34:55;61.45;;;5.63;;
58242;SDS011;50118;53.232;8.252;2023-07-08T09:37:28;4.25;;;2.80;;
58242;SDS011;50118;53.232;8.252;2023-07-08T09:39:56;4.85;;;2.85;;
58242;SDS011;50118;53.232;8.252;2023-07-08T09:42:25;5.15;;;2.90;;
58242;SDS011;50118;53.232;8.252;2023-07-08T09:44:54;4.55;;;2.95;;
58242;SDS011;50118;53.232;8.252;2023-07-08T09:47:37;5.28;;;3.10;;
58242;SDS011;50118;53.232;8.252;2023-07-08T09:50:16;4.28;;;3.30;;
58242;SDS011;50118;53.232;8.252;2023-07-08T09:52:53;4.57;;;2.72;;
58242;SDS011;50118;53.232;8.252;2023-07-08T09:55:22;4.72;;;2.95;;
58242;SDS011;50118;53.232;8.252;2023-07-08T09:57:49;4.50;;;2.85;;
58242;SDS011;50118;53.232;8.252;2023-07-08T10:00:19;4.70;;;2.83;;
58242;SDS011;50118;53.232;8.252;2023-07-08T10:02:54;4.50;;;2.95;;
58242;SDS011;50118;53.232;8.252;2023-07-08T10:05:25;4.75;;;3.03;;
58242;SDS011;50118;53.232;8.252;2023-07-08T10:07:55;4.13;;;3.03;;
58242;SDS011;50118;53.232;8.252;2023-07-08T10:10:28;6.25;;;2.95;;
58242;SDS011;50118;53.232;8.252;2023-07-08T10:13:01;6.38;;;3.00;;
58242;SDS011;50118;53.232;8.252;2023-07-08T10:15:37;4.32;;;2.83;;
58242;SDS011;50118;53.232;8.252;2023-07-08T10:18:10;4.38;;;2.80;;
58242;SDS011;50118;53.232;8.252;2023-07-08T10:26:11;5.03;;;3.30;;
58242;SDS011;50118;53.232;8.252;2023-07-08T10:45:31;4.32;;;2.80;;
58242;SDS011;50118;53.232;8.252;2023-07-08T11:08:11;5.65;;;3.00;;
58242;SDS011;50118;53.232;8.252;2023-07-08T11:13:28;4.65;;;3.20;;
58242;SDS011;50118;53.232;8.252;2023-07-08T11:18:28;5.28;;;3.30;;
58242;SDS011;50118;53.232;8.252;2023-07-08T11:21:04;5.28;;;3.17;;
58242;SDS011;50118;53.232;8.252;2023-07-08T11:26:45;4.38;;;3.20;;
58242;SDS011;50118;53.232;8.252;2023-07-08T11:29:17;3.85;;;2.90;;
58242;SDS011;50118;53.232;8.252;2023-07-08T11:31:47;5.88;;;3.08;;
58242;SDS011;50118;53.232;8.252;2023-07-08T11:34:14;4.32;;;3.00;;
58242;SDS011;50118;53.232;8.252;2023-07-08T11:36:42;5.03;;;2.90;;
58242;SDS011;50118;53.232;8.252;2023-07-08T11:39:32;4.88;;;3.15;;
58242;SDS011;50118;53.232;8.252;2023-07-08T11:42:35;6.32;;;3.20;;
58242;SDS011;50118;53.232;8.252;2023-07-08T11:44:56;4.32;;;3.10;;
58242;SDS011;50118;53.232;8.252;2023-07-08T11:47:32;4.65;;;3.08;;
58242;SDS011;50118;53.232;8.252;2023-07-08T11:50:02;5.15;;;3.20;;
58242;SDS011;50118;53.232;8.252;2023-07-08T11:52:29;3.90;;;3.30;;
58242;SDS011;50118;53.232;8.252;2023-07-08T11:54:56;5.60;;;3.20;;
58242;SDS011;50118;53.232;8.252;2023-07-08T11:57:28;4.43;;;3.28;;
58242;SDS011;50118;53.232;8.252;2023-07-08T12:00:10;4.55;;;3.28;;
58242;SDS011;50118;53.232;8.252;2023-07-08T12:02:49;6.15;;;3.30;;
58242;SDS011;50118;53.232;8.252;2023-07-08T12:05:29;4.78;;;3.33;;
58242;SDS011;50118;53.232;8.252;2023-07-08T12:07:55;4.88;;;3.13;;
58242;SDS011;50118;53.232;8.252;2023-07-08T12:10:33;6.38;;;3.33;;
58242;SDS011;50118;53.232;8.252;2023-07-08T12:13:03;5.63;;;3.00;;
58242;SDS011;50118;53.232;8.252;2023-07-08T12:15:37;5.03;;;3.33;;
58242;SDS011;50118;53.232;8.252;2023-07-08T12:18:13;3.50;;;3.00;;
58242;SDS011;50118;53.232;8.252;2023-07-08T12:20:42;4.13;;;2.88;;
58242;SDS011;50118;53.232;8.252;2023-07-08T12:23:18;5.55;;;3.53;;
58242;SDS011;50118;53.232;8.252;2023-07-08T12:25:45;4.95;;;3.10;;
58242;SDS011;50118;53.232;8.252;2023-07-08T12:28:11;4.20;;;3.17;;
58242;SDS011;50118;53.232;8.252;2023-07-08T12:30:37;5.55;;;3.28;;
58242;SDS011;50118;53.232;8.252;2023-07-08T12:33:03;5.00;;;3.22;;
58242;SDS011;50118;53.232;8.252;2023-07-08T12:35:36;9.57;;;3.50;;
58242;SDS011;50118;53.232;8.252;2023-07-08T12:38:02;4.60;;;3.28;;
58242;SDS011;50118;53.232;8.252;2023-07-08T12:40:31;7.13;;;3.80;;
58242;SDS011;50118;53.232;8.252;2023-07-08T12:42:57;4.35;;;3.20;;
58242;SDS011;50118;53.232;8.252;2023-07-08T12:45:26;4.47;;;3.30;;
58242;SDS011;50118;53.232;8.252;2023-07-08T12:47:54;5.65;;;3.03;;
58242;SDS011;50118;53.232;8.252;2023-07-08T12:50:20;4.47;;;3.40;;
58242;SDS011;50118;53.232;8.252;2023-07-08T12:52:46;4.28;;;3.08;;
58242;SDS011;50118;53.232;8.252;2023-07-08T12:55:13;4.55;;;3.35;;
58242;SDS011;50118;53.232;8.252;2023-07-08T12:57:40;5.22;;;3.42;;
58242;SDS011;50118;53.232;8.252;2023-07-08T13:00:15;5.63;;;3.17;;
58242;SDS011;50118;53.232;8.252;2023-07-08T13:02:46;5.40;;;3.67;;
58242;SDS011;50118;53.232;8.252;2023-07-08T13:05:15;4.43;;;3.08;;
58242;SDS011;50118;53.232;8.252;2023-07-08T13:07:42;5.47;;;3.30;;
58242;SDS011;50118;53.232;8.252;2023-07-08T13:10:15;4.35;;;3.00;;
58242;SDS011;50118;53.232;8.252;2023-07-08T13:12:46;4.28;;;3.35;;
58242;SDS011;50118;53.232;8.252;2023-07-08T13:15:18;4.55;;;3.10;;
58242;SDS011;50118;53.232;8.252;2023-07-08T13:17:48;4.40;;;3.40;;
58242;SDS011;50118;53.232;8.252;2023-07-08T13:20:14;5.30;;;3.70;;
58242;SDS011;50118;53.232;8.252;2023-07-08T13:22:41;4.88;;;3.55;;
58242;SDS011;50118;53.232;8.252;2023-07-08T13:25:18;4.85;;;2.95;;
58242;SDS011;50118;53.232;8.252;2023-07-08T13:28:02;6.68;;;3.47;;
58242;SDS011;50118;53.232;8.252;2023-07-08T13:30:48;6.28;;;3.80;;
58242;SDS011;50118;53.232;8.252;2023-07-08T13:33:19;4.82;;;3.45;;
58242;SDS011;50118;53.232;8.252;2023-07-08T13:35:44;4.30;;;3.20;;
58242;SDS011;50118;53.232;8.252;2023-07-08T13:38:17;4.03;;;3.35;;
58242;SDS011;50118;53.232;8.252;2023-07-08T13:40:46;5.78;;;3.65;;
58242;SDS011;50118;53.232;8.252;2023-07-08T13:43:22;5.60;;;3.58;;
58242;SDS011;50118;53.232;8.252;2023-07-08T13:45:49;5.03;;;3.50;;
58242;SDS011;50118;53.232;8.252;2023-07-08T13:48:20;5.65;;;3.78;;
58242;SDS011;50118;53.232;8.252;2023-07-08T13:50:53;5.82;;;3.85;;
58242;SDS011;50118;53.232;8.252;2023-07-08T13:53:32;4.88;;;3.50;;
58242;SDS011;50118;53.232;8.252;2023-07-08T13:56:20;4.43;;;3.55;;
58242;SDS011;50118;53.232;8.252;2023-07-08T13:58:52;5.43;;;3.30;;
58242;SDS011;50118;53.232;8.252;2023-07-08T14:01:29;5.43;;;3.80;;
58242;SDS011;50118;53.232;8.252;2023-07-08T14:03:56;5.60;;;3.60;;
58242;SDS011;50118;53.232;8.252;2023-07-08T14:06:23;4.88;;;3.60;;
58242;SDS011;50118;53.232;8.252;2023-07-08T14:08:53;5.05;;;3.97;;
58242;SDS011;50118;53.232;8.252;2023-07-08T14:11:23;4.85;;;3.55;;
58242;SDS011;50118;53.232;8.252;2023-07-08T14:13:48;4.43;;;3.53;;
58242;SDS011;50118;53.232;8.252;2023-07-08T14:16:33;5.05;;;3.80;;
58242;SDS011;50118;53.232;8.252;2023-07-08T14:19:02;5.13;;;3.78;;
58242;SDS011;50118;53.232;8.252;2023-07-08T14:21:32;6.15;;;3.85;;
58242;SDS011;50118;53.232;8.252;2023-07-08T14:23:59;5.20;;;3.58;;
58242;SDS011;50118;53.232;8.252;2023-07-08T14:26:25;134.98;;;12.25;;
58242;SDS011;50118;53.232;8.252;2023-07-08T14:28:50;4.88;;;3.78;;
58242;SDS011;50118;53.232;8.252;2023-07-08T14:31:18;4.65;;;3.65;;
58242;SDS011;50118;53.232;8.252;2023-07-08T14:33:47;5.35;;;3.67;;
58242;SDS011;50118;53.232;8.252;2023-07-08T14:36:13;4.88;;;3.60;;
58242;SDS011;50118;53.232;8.252;2023-07-08T14:38:40;7.78;;;3.90;;
58242;SDS011;50118;53.232;8.252;2023-07-08T14:41:05;5.05;;;3.40;;
58242;SDS011;50118;53.232;8.252;2023-07-08T14:43:32;5.55;;;3.72;;
58242;SDS011;50118;53.232;8.252;2023-07-08T14:45:59;5.20;;;3.83;;
58242;SDS011;50118;53.232;8.252;2023-07-08T14:48:30;6.57;;;4.25;;
58242;SDS011;50118;53.232;8.252;2023-07-08T14:50:57;6.20;;;3.93;;
58242;SDS011;50118;53.232;8.252;2023-07-08T14:53:22;6.63;;;4.03;;
58242;SDS011;50118;53.232;8.252;2023-07-08T14:55:49;4.85;;;3.80;;
58242;SDS011;50118;53.232;8.252;2023-07-08T14:58:21;6.63;;;3.90;;
58242;SDS011;50118;53.232;8.252;2023-07-08T15:00:49;6.57;;;3.90;;
58242;SDS011;50118;53.232;8.252;2023-07-08T15:03:16;5.30;;;3.78;;
58242;SDS011;50118;53.232;8.252;2023-07-08T15:05:42;5.50;;;3.92;;
58242;SDS011;50118;53.232;8.252;2023-07-08T15:08:08;4.75;;;3.75;;
58242;SDS011;50118;53.232;8.252;2023-07-08T15:10:33;4.03;;;3.42;;
58242;SDS011;50118;53.232;8.252;2023-07-08T15:13:01;6.45;;;3.90;;
58242;SDS011;50118;53.232;8.252;2023-07-08T15:15:32;6.25;;;4.00;;
58242;SDS011;50118;53.232;8.252;2023-07-08T15:18:00;5.55;;;3.75;;
58242;SDS011;50118;53.232;8.252;2023-07-08T15:20:31;4.85;;;3.97;;
58242;SDS011;50118;53.232;8.252;2023-07-08T15:22:57;6.97;;;4.03;;
58242;SDS011;50118;53.232;8.252;2023-07-08T15:25:23;5.10;;;3.72;;
58242;SDS011;50118;53.232;8.252;2023-07-08T15:27:50;4.95;;;3.83;;
58242;SDS011;50118;53.232;8.252;2023-07-08T15:30:22;6.18;;;3.75;;
58242;SDS011;50118;53.232;8.252;2023-07-08T15:35:18;5.22;;;3.80;;
58242;SDS011;50118;53.232;8.252;2023-07-08T15:37:55;6.15;;;3.90;;
58242;SDS011;50118;53.232;8.252;2023-07-08T15:40:21;5.18;;;3.50;;
58242;SDS011;50118;53.232;8.252;2023-07-08T15:42:52;5.25;;;3.72;;
58242;SDS011;50118;53.232;8.252;2023-07-08T15:47:45;6.05;;;3.60;;
58242;SDS011;50118;53.232;8.252;2023-07-08T15:50:11;5.60;;;3.70;;
58242;SDS011;50118;53.232;8.252;2023-07-08T15:52:39;5.22;;;3.80;;
58242;SDS011;50118;53.232;8.252;2023-07-08T15:55:05;5.05;;;4.03;;
58242;SDS011;50118;53.232;8.252;2023-07-08T15:57:33;4.93;;;4.05;;
58242;SDS011;50118;53.232;8.252;2023-07-08T15:59:59;5.45;;;3.95;;
58242;SDS011;50118;53.232;8.252;2023-07-08T16:02:25;6.72;;;4.07;;